createdAt,value
2016-07-08T00:00:14.322Z,17.88
2016-07-08T00:01:14.308Z,17.88
2016-07-08T00:02:14.527Z,17.9
2016-07-08T00:03:14.536Z,17.83
2016-07-08T00:04:14.449Z,17.87
2016-07-08T00:05:14.351Z,17.87
2016-07-08T00:06:15.359Z,17.83
2016-07-08T00:07:14.348Z,17.84
2016-07-08T00:08:14.542Z,17.77
2016-07-08T00:09:14.556Z,17.77
2016-07-08T00:10:14.449Z,17.71
2016-07-08T00:11:14.546Z,17.79
2016-07-08T00:12:14.343Z,17.79
2016-07-08T00:13:14.450Z,17.65
2016-07-08T00:14:14.496Z,17.68
2016-07-08T00:15:14.427Z,17.74
2016-07-08T00:16:14.455Z,17.63
2016-07-08T00:17:14.454Z,17.79
2016-07-08T00:18:14.426Z,17.68
2016-07-08T00:19:14.327Z,17.65
2016-07-08T00:20:14.466Z,17.71
2016-07-08T00:21:14.606Z,17.77
2016-07-08T00:22:14.292Z,17.8
2016-07-08T00:23:14.372Z,17.77
2016-07-08T00:24:14.372Z,17.63
2016-07-08T00:25:14.343Z,17.65
2016-07-08T00:26:14.459Z,17.77
2016-07-08T00:27:14.460Z,17.6
2016-07-08T00:28:14.486Z,17.66
2016-07-08T00:29:14.460Z,17.66
2016-07-08T00:30:14.487Z,17.46
2016-07-08T00:31:14.487Z,17.32
2016-07-08T00:32:14.621Z,17.2
2016-07-08T00:33:14.513Z,17.22
2016-07-08T00:34:14.481Z,17.15
2016-07-08T00:35:14.387Z,17.24
2016-07-08T00:36:14.349Z,17.1
2016-07-08T00:37:14.527Z,17.17
2016-07-08T00:38:14.534Z,17.18
2016-07-08T00:39:14.499Z,17.3
2016-07-08T00:40:14.390Z,17.39
2016-07-08T00:41:14.546Z,17.38
2016-07-08T00:42:14.392Z,17.46
2016-07-08T00:43:14.650Z,17.46
2016-07-08T00:44:14.669Z,17.58
2016-07-08T00:45:14.546Z,17.6
2016-07-08T00:46:14.659Z,17.74
2016-07-08T00:47:14.677Z,17.77
2016-07-08T00:48:14.603Z,17.81
2016-07-08T00:49:14.686Z,17.88
2016-07-08T00:50:14.559Z,17.9
2016-07-08T00:51:14.671Z,17.9
2016-07-08T00:52:14.583Z,18.05
2016-07-08T00:53:14.534Z,17.92
2016-07-08T00:54:14.680Z,18.01
2016-07-08T00:55:14.428Z,18.08
2016-07-08T00:56:14.459Z,18.02
2016-07-08T00:57:14.705Z,18.05
2016-07-08T00:58:14.431Z,18.02
2016-07-08T00:59:14.576Z,18.05
2016-07-08T01:00:14.545Z,18.02
2016-07-08T01:01:14.498Z,18.02
2016-07-08T01:02:14.604Z,18.11
2016-07-08T01:03:14.585Z,18.13
2016-07-08T01:04:14.704Z,18.1
2016-07-08T01:05:14.713Z,18.06
2016-07-08T01:06:14.594Z,18.14
2016-07-08T01:07:14.719Z,18.05
2016-07-08T01:08:14.726Z,18.1
2016-07-08T01:09:14.615Z,18.13
2016-07-08T01:10:14.735Z,18.1
2016-07-08T01:11:14.718Z,18.05
2016-07-08T01:12:14.577Z,18.06
2016-07-08T01:13:14.439Z,18.05
2016-07-08T01:14:14.740Z,17.99
2016-07-08T01:15:14.596Z,18.02
2016-07-08T01:16:14.590Z,18.06
2016-07-08T01:17:14.722Z,18.02
2016-07-08T01:18:14.632Z,18.03
2016-07-08T01:19:14.639Z,18.03
2016-07-08T01:20:14.762Z,18.05
2016-07-08T01:21:14.483Z,18.03
2016-07-08T01:22:14.628Z,17.99
2016-07-08T01:23:14.654Z,18.05
2016-07-08T01:24:14.507Z,18.03
2016-07-08T01:35:13.172Z,17.94
2016-07-08T01:36:13.195Z,18.01
2016-07-08T01:37:13.149Z,17.98
2016-07-08T01:38:13.311Z,18.01
2016-07-08T01:39:13.164Z,17.96
2016-07-08T01:40:13.196Z,17.95
2016-07-08T01:41:13.175Z,17.88
2016-07-08T01:42:13.323Z,17.96
2016-07-08T01:43:13.310Z,17.95
2016-07-08T01:44:13.201Z,17.87
2016-07-08T01:45:13.216Z,17.92
2016-07-08T01:46:13.312Z,17.9
2016-07-08T01:47:13.304Z,17.9
2016-07-08T01:48:13.195Z,17.86
2016-07-08T01:49:13.342Z,17.92
2016-07-08T01:50:13.111Z,17.9
2016-07-08T01:51:13.033Z,17.95
2016-07-08T01:52:13.200Z,17.94
2016-07-08T01:53:13.043Z,17.88
2016-07-08T01:54:13.181Z,17.9
2016-07-08T01:55:13.213Z,17.87
2016-07-08T01:56:13.227Z,17.86
2016-07-08T01:57:13.233Z,17.87
2016-07-08T01:58:13.185Z,17.92
2016-07-08T01:59:13.087Z,17.94
2016-07-08T02:00:13.101Z,17.81
2016-07-08T02:01:13.125Z,17.88
2016-07-08T02:02:13.370Z,17.87
2016-07-08T02:03:13.384Z,17.9
2016-07-08T02:04:13.244Z,17.86
2016-07-08T02:05:13.205Z,17.88
2016-07-08T02:06:13.113Z,17.96
2016-07-08T02:07:13.215Z,17.81
2016-07-08T02:08:13.317Z,17.88
2016-07-08T02:09:13.364Z,17.96
2016-07-08T02:10:13.076Z,17.84
2016-07-08T02:11:13.086Z,17.88
2016-07-08T02:12:13.231Z,17.8
2016-07-08T02:13:13.090Z,17.84
2016-07-08T02:14:13.395Z,17.88
2016-07-08T02:15:13.291Z,17.83
2016-07-08T02:16:13.292Z,17.8
2016-07-08T02:17:13.315Z,17.87
2016-07-08T02:18:13.131Z,17.77
2016-07-08T02:19:13.252Z,17.77
2016-07-08T02:20:13.272Z,17.94
2016-07-08T02:21:13.246Z,17.81
2016-07-08T02:22:13.456Z,17.77
2016-07-08T02:23:13.314Z,17.83
2016-07-08T02:24:13.290Z,17.74
2016-07-08T02:25:13.258Z,17.77
2016-07-08T02:26:13.332Z,17.79
2016-07-08T02:27:13.163Z,17.79
2016-07-08T02:28:13.218Z,17.79
2016-07-08T02:29:13.425Z,17.8
2016-07-08T02:30:13.184Z,17.81
2016-07-08T02:31:13.335Z,17.77
2016-07-08T02:32:13.311Z,17.81
2016-07-08T02:33:13.330Z,17.77
2016-07-08T02:34:13.184Z,17.74
2016-07-08T02:35:13.353Z,17.76
2016-07-08T02:36:13.354Z,17.76
2016-07-08T02:37:13.217Z,17.81
2016-07-08T02:38:13.487Z,17.63
2016-07-08T02:39:13.456Z,17.68
2016-07-08T02:40:13.478Z,17.81
2016-07-08T02:41:13.368Z,17.74
2016-07-08T02:42:13.483Z,17.8
2016-07-08T02:43:13.451Z,17.71
2016-07-08T02:44:13.504Z,17.66
2016-07-08T02:45:13.373Z,17.69
2016-07-08T02:46:13.349Z,17.74
2016-07-08T02:47:13.486Z,17.81
2016-07-08T02:48:13.481Z,17.79
2016-07-08T02:49:13.220Z,17.8
2016-07-08T02:50:13.496Z,17.76
2016-07-08T02:51:13.393Z,17.77
2016-07-08T02:52:13.213Z,17.6
2016-07-08T02:53:13.498Z,17.76
2016-07-08T02:54:13.366Z,17.77
2016-07-08T02:55:13.490Z,17.76
2016-07-08T02:56:13.501Z,17.74
2016-07-08T02:57:13.365Z,17.74
2016-07-08T02:58:13.388Z,17.77
2016-07-08T02:59:13.600Z,17.55
2016-07-08T03:00:13.405Z,17.69
2016-07-08T03:01:13.552Z,17.6
2016-07-08T03:02:13.541Z,17.69
2016-07-08T03:03:13.534Z,17.77
2016-07-08T03:04:13.384Z,17.62
2016-07-08T03:05:13.438Z,17.66
2016-07-08T03:06:13.560Z,17.71
2016-07-08T03:07:13.542Z,17.71
2016-07-08T03:08:13.558Z,17.65
2016-07-08T03:09:13.445Z,17.6
2016-07-08T03:10:13.404Z,17.57
2016-07-08T03:11:13.405Z,17.65
2016-07-08T03:12:13.456Z,17.68
2016-07-08T03:13:13.315Z,17.52
2016-07-08T03:14:13.560Z,17.69
2016-07-08T03:15:13.361Z,17.6
2016-07-08T03:16:13.471Z,17.6
2016-07-08T03:17:13.622Z,17.5
2016-07-08T03:18:13.437Z,17.62
2016-07-08T03:19:13.421Z,17.62
2016-07-08T03:20:13.479Z,17.63
2016-07-08T03:21:13.306Z,17.55
2016-07-08T03:22:13.464Z,17.55
2016-07-08T03:23:13.489Z,17.57
2016-07-08T03:24:13.597Z,17.55
2016-07-08T03:25:13.619Z,17.62
2016-07-08T03:26:13.500Z,17.57
2016-07-08T03:27:13.606Z,17.52
2016-07-08T03:28:13.350Z,17.57
2016-07-08T03:29:13.625Z,17.45
2016-07-08T03:30:13.340Z,17.54
2016-07-08T03:31:13.329Z,17.46
2016-07-08T03:32:13.617Z,17.46
2016-07-08T03:33:13.354Z,17.52
2016-07-08T03:34:13.359Z,17.49
2016-07-08T03:35:13.495Z,17.43
2016-07-08T03:36:13.502Z,17.46
2016-07-08T03:37:13.522Z,17.36
2016-07-08T03:38:13.624Z,17.4
2016-07-08T03:39:13.430Z,17.46
2016-07-08T03:40:13.395Z,17.38
2016-07-08T03:41:13.524Z,17.4
2016-07-08T03:42:13.647Z,17.39
2016-07-08T03:43:14.157Z,17.42
2016-07-08T03:44:13.533Z,17.36
2016-07-08T03:45:13.376Z,17.47
2016-07-08T03:46:13.378Z,17.43
2016-07-08T03:47:13.637Z,17.42
2016-07-08T03:48:13.625Z,17.3
2016-07-08T03:49:13.393Z,17.38
2016-07-08T03:50:13.586Z,17.36
2016-07-08T03:51:13.674Z,17.39
2016-07-08T03:52:13.546Z,17.31
2016-07-08T03:53:13.402Z,17.38
2016-07-08T03:54:13.463Z,17.35
2016-07-08T03:55:13.701Z,17.35
2016-07-08T03:56:13.552Z,17.38
2016-07-08T03:57:13.578Z,17.31
2016-07-08T03:58:13.446Z,17.31
2016-07-08T03:59:13.448Z,17.31
2016-07-08T04:00:13.583Z,17.28
2016-07-08T04:01:13.692Z,17.32
2016-07-08T04:02:13.573Z,17.2
2016-07-08T04:03:13.583Z,17.35
2016-07-08T04:04:13.562Z,17.27
2016-07-08T04:05:13.450Z,17.27
2016-07-08T04:06:13.715Z,17.27
2016-07-08T04:07:13.574Z,17.28
2016-07-08T04:08:13.604Z,17.27
2016-07-08T04:09:13.622Z,17.17
2016-07-08T04:10:13.473Z,17.27
2016-07-08T04:11:13.627Z,17.21
2016-07-08T04:12:13.606Z,17.21
2016-07-08T04:13:13.586Z,17.2
2016-07-08T04:14:13.476Z,17.21
2016-07-08T04:15:13.571Z,17.18
2016-07-08T04:16:13.735Z,17.22
2016-07-08T04:17:13.499Z,17.24
2016-07-08T04:18:13.651Z,17.18
2016-07-08T04:19:13.534Z,17.12
2016-07-08T04:20:13.674Z,17.17
2016-07-08T04:21:13.512Z,17.22
2016-07-08T04:22:13.644Z,17.09
2016-07-08T04:23:13.621Z,17.17
2016-07-08T04:24:13.637Z,17.15
2016-07-08T04:25:13.681Z,17.07
2016-07-08T04:26:13.647Z,17.09
2016-07-08T04:27:13.765Z,17.13
2016-07-08T04:28:13.665Z,17.18
2016-07-08T04:29:13.566Z,17.12
2016-07-08T04:30:13.778Z,17.22
2016-07-08T04:31:13.644Z,17.21
2016-07-08T04:32:13.657Z,17.28
2016-07-08T04:33:13.771Z,17.3
2016-07-08T04:34:13.825Z,17.38
2016-07-08T04:35:13.657Z,17.49
2016-07-08T04:36:13.550Z,17.49
2016-07-08T04:37:13.777Z,17.62
2016-07-08T04:38:13.580Z,17.57
2016-07-08T04:39:13.559Z,17.63
2016-07-08T04:40:13.785Z,17.54
2016-07-08T04:41:13.532Z,17.6
2016-07-08T04:42:13.701Z,17.68
2016-07-08T04:43:13.650Z,17.77
2016-07-08T04:44:13.675Z,17.73
2016-07-08T04:45:13.704Z,17.69
2016-07-08T04:46:13.694Z,17.77
2016-07-08T04:47:13.661Z,17.77
2016-07-08T04:48:13.699Z,17.74
2016-07-08T04:49:13.823Z,17.74
2016-07-08T04:50:13.667Z,17.79
2016-07-08T04:51:13.562Z,17.81
2016-07-08T04:52:13.806Z,17.84
2016-07-08T04:53:13.579Z,17.87
2016-07-08T04:54:13.729Z,17.88
2016-07-08T04:55:13.823Z,17.9
2016-07-08T04:56:13.577Z,17.94
2016-07-08T04:57:13.745Z,17.95
2016-07-08T04:58:13.597Z,17.98
2016-07-08T04:59:13.705Z,18.05
2016-07-08T05:00:13.688Z,18.01
2016-07-08T05:01:13.709Z,18.14
2016-07-08T05:02:13.712Z,18.08
2016-07-08T05:03:13.847Z,18.13
2016-07-08T05:04:13.616Z,18.2
2016-07-08T05:05:13.761Z,18.11
2016-07-08T05:06:13.879Z,18.16
2016-07-08T05:07:13.810Z,18.21
2016-07-08T05:08:13.710Z,18.27
2016-07-08T05:09:13.646Z,18.27
2016-07-08T05:10:13.729Z,18.26
2016-07-08T05:11:13.766Z,18.34
2016-07-08T05:12:13.878Z,18.32
2016-07-08T05:13:13.887Z,18.29
2016-07-08T05:14:13.863Z,18.34
2016-07-08T05:15:13.600Z,18.31
2016-07-08T05:16:13.884Z,18.31
2016-07-08T05:17:13.775Z,18.23
2016-07-08T05:18:13.743Z,18.27
2016-07-08T05:19:13.669Z,18.32
2016-07-08T05:20:13.893Z,18.31
2016-07-08T05:21:13.761Z,18.27
2016-07-08T05:22:13.804Z,18.27
2016-07-08T05:23:13.694Z,18.38
2016-07-08T05:24:13.790Z,18.17
2016-07-08T05:25:13.795Z,18.24
2016-07-08T05:26:13.916Z,18.31
2016-07-08T05:27:13.806Z,18.19
2016-07-08T05:28:13.911Z,18.24
2016-07-08T05:29:13.772Z,18.19
2016-07-08T05:30:13.727Z,18.23
2016-07-08T05:31:13.923Z,18.2
2016-07-08T05:32:13.803Z,18.29
2016-07-08T05:33:13.929Z,18.19
2016-07-08T05:34:13.937Z,18.24
2016-07-08T05:35:13.984Z,18.2
2016-07-08T05:36:13.867Z,18.26
2016-07-08T05:37:13.937Z,18.17
2016-07-08T05:38:13.824Z,18.31
2016-07-08T05:39:13.802Z,18.13
2016-07-08T05:40:13.835Z,18.24
2016-07-08T05:41:13.956Z,18.23
2016-07-08T05:42:13.823Z,18.2
2016-07-08T05:43:13.961Z,18.31
2016-07-08T05:44:13.854Z,18.34
2016-07-08T05:45:13.881Z,18.34
2016-07-08T05:46:13.867Z,18.42
2016-07-08T05:47:13.826Z,18.35
2016-07-08T05:48:13.881Z,18.49
2016-07-08T05:49:13.870Z,18.5
2016-07-08T05:50:13.867Z,18.39
2016-07-08T05:51:13.987Z,18.49
2016-07-08T05:52:13.996Z,18.45
2016-07-08T05:53:14.027Z,18.47
2016-07-08T06:06:14.683Z,18.31
2016-07-08T06:06:21.925Z,18.36
2016-07-08T06:07:21.655Z,18.35
2016-07-08T06:08:21.902Z,18.36
2016-07-08T06:09:21.760Z,18.36
2016-07-08T06:10:21.811Z,18.42
2016-07-08T06:11:21.807Z,18.45
2016-07-08T06:12:21.936Z,18.41
2016-07-08T06:13:21.657Z,18.45
2016-07-08T06:14:21.800Z,18.45
2016-07-08T06:15:21.857Z,18.44
2016-07-08T06:16:21.796Z,18.47
2016-07-08T06:17:21.779Z,18.44
2016-07-08T06:18:21.659Z,18.49
2016-07-08T06:19:21.776Z,18.44
2016-07-08T06:20:21.945Z,18.42
2016-07-08T06:21:21.974Z,18.5
2016-07-08T06:22:21.959Z,18.63
2016-07-08T06:23:21.753Z,18.74
2016-07-08T06:24:21.863Z,18.79
2016-07-08T06:25:21.941Z,18.82
2016-07-08T06:26:21.824Z,18.86
2016-07-08T06:27:21.870Z,18.9
2016-07-08T06:28:21.987Z,18.96
2016-07-08T06:29:21.732Z,19.05
2016-07-08T06:30:21.736Z,19.25
2016-07-08T06:31:21.834Z,19.27
2016-07-08T06:32:21.735Z,19.3
2016-07-08T06:33:22.003Z,19.49
2016-07-08T06:34:21.990Z,19.53
2016-07-08T06:35:21.740Z,19.64
2016-07-08T06:36:21.897Z,19.64
2016-07-08T06:37:21.779Z,19.78
2016-07-08T06:38:21.880Z,19.78
2016-07-08T06:39:21.982Z,19.65
2016-07-08T06:40:22.019Z,19.64
2016-07-08T06:41:22.027Z,19.5
2016-07-08T06:42:21.868Z,19.57
2016-07-08T06:43:22.022Z,19.61
2016-07-08T06:44:21.936Z,19.56
2016-07-08T06:45:22.113Z,19.7
2016-07-08T06:46:23.079Z,19.7
2016-07-08T06:47:21.936Z,19.82
2016-07-08T06:48:21.899Z,19.95
2016-07-08T06:49:22.057Z,20
2016-07-08T06:50:22.048Z,19.93
2016-07-08T06:51:22.003Z,20.01
2016-07-08T06:52:21.932Z,20.07
2016-07-08T06:53:22.059Z,19.93
2016-07-08T06:54:22.059Z,19.95
2016-07-08T06:55:21.945Z,20.05
2016-07-08T06:56:22.062Z,20.1
2016-07-08T06:57:21.954Z,20.12
2016-07-08T06:58:21.990Z,20.18
2016-07-08T06:59:21.943Z,20.25
2016-07-08T07:00:21.948Z,20.29
2016-07-08T07:01:21.830Z,20.44
2016-07-08T07:02:22.037Z,20.37
2016-07-08T07:03:21.976Z,20.38
2016-07-08T07:04:21.969Z,20.49
2016-07-08T07:05:21.967Z,20.57
2016-07-08T07:06:22.111Z,20.41
2016-07-08T07:07:22.079Z,20.51
2016-07-08T07:08:22.087Z,20.49
2016-07-08T07:09:21.863Z,20.57
2016-07-08T07:10:22.052Z,20.58
2016-07-08T07:11:21.851Z,20.57
2016-07-08T07:12:21.844Z,20.38
2016-07-08T07:13:21.829Z,20.41
2016-07-08T07:14:21.976Z,20.41
2016-07-08T07:15:22.016Z,20.4
2016-07-08T07:16:22.001Z,20.51
2016-07-08T07:17:22.279Z,20.67
2016-07-08T07:18:21.974Z,20.63
2016-07-08T07:19:22.137Z,20.71
2016-07-08T07:20:21.958Z,20.66
2016-07-08T07:21:22.059Z,20.74
2016-07-08T07:22:21.859Z,20.63
2016-07-08T07:23:22.016Z,20.66
2016-07-08T07:24:22.006Z,20.61
2016-07-08T07:25:22.048Z,20.64
2016-07-08T07:26:22.030Z,20.76
2016-07-08T07:27:21.985Z,20.78
2016-07-08T07:28:21.870Z,20.76
2016-07-08T07:29:22.103Z,20.74
2016-07-08T07:30:22.050Z,20.76
2016-07-08T07:31:22.053Z,20.66
2016-07-08T07:32:22.084Z,20.72
2016-07-08T07:33:22.004Z,20.68
2016-07-08T07:34:22.019Z,20.85
2016-07-08T07:35:22.269Z,20.85
2016-07-08T07:36:22.060Z,20.85
2016-07-08T07:37:21.920Z,20.76
2016-07-08T07:38:22.116Z,20.86
2016-07-08T07:39:21.885Z,20.94
2016-07-08T07:40:22.046Z,20.93
2016-07-08T07:41:22.093Z,21.04
2016-07-08T07:42:21.958Z,20.91
2016-07-08T07:43:22.263Z,20.97
2016-07-08T07:44:22.126Z,20.97
2016-07-08T07:45:22.424Z,21.06
2016-07-08T07:46:21.944Z,21.08
2016-07-08T07:47:22.197Z,21.01
2016-07-08T07:48:22.126Z,21.15
2016-07-08T07:49:22.217Z,21.23
2016-07-08T07:50:22.063Z,21.09
2016-07-08T07:51:21.969Z,21.01
2016-07-08T07:52:22.663Z,21.09
2016-07-08T07:53:22.754Z,21.12
2016-07-08T07:54:22.772Z,21.18
2016-07-08T07:55:22.599Z,21.23
2016-07-08T07:56:22.523Z,21.16
2016-07-08T07:57:22.283Z,21.27
2016-07-08T07:58:22.185Z,21.3
2016-07-08T07:59:22.081Z,21.23
2016-07-08T08:00:22.242Z,21.23
2016-07-08T08:01:22.289Z,21.3
2016-07-08T08:02:22.024Z,21.22
2016-07-08T08:03:22.321Z,21.34
2016-07-08T08:04:22.048Z,21.28
2016-07-08T08:05:22.132Z,21.31
2016-07-08T08:06:22.260Z,21.38
2016-07-08T08:07:22.180Z,21.46
2016-07-08T08:08:22.008Z,21.51
2016-07-08T08:09:22.270Z,21.76
2016-07-08T08:10:22.015Z,21.67
2016-07-08T08:11:22.308Z,21.67
2016-07-08T08:12:22.114Z,21.58
2016-07-08T08:13:22.141Z,21.67
2016-07-08T08:14:22.034Z,21.83
2016-07-08T08:15:22.187Z,21.78
2016-07-08T08:16:22.125Z,21.89
2016-07-08T08:17:22.287Z,21.97
2016-07-08T08:18:22.168Z,22.04
2016-07-08T08:19:22.161Z,22.08
2016-07-08T08:20:22.160Z,22.31
2016-07-08T08:21:22.288Z,22.44
2016-07-08T08:22:22.176Z,22.2
2016-07-08T08:23:22.026Z,22.24
2016-07-08T08:24:22.319Z,22.24
2016-07-08T08:25:22.310Z,22.05
2016-07-08T08:26:22.187Z,22.14
2016-07-08T08:27:22.324Z,22.11
2016-07-08T08:28:22.332Z,22.02
2016-07-08T08:29:22.316Z,22.14
2016-07-08T08:30:22.177Z,22.15
2016-07-08T08:31:22.327Z,22.24
2016-07-08T08:32:22.180Z,22.24
2016-07-08T08:33:22.183Z,22.07
2016-07-08T08:34:22.053Z,22.15
2016-07-08T08:35:22.188Z,22.08
2016-07-08T08:36:22.148Z,22.2
2016-07-08T08:37:22.067Z,22.09
2016-07-08T08:38:22.362Z,22
2016-07-08T08:39:22.348Z,22.02
2016-07-08T08:40:22.216Z,22.11
2016-07-08T08:41:22.368Z,22.16
2016-07-08T08:42:22.223Z,22.18
2016-07-08T08:43:22.369Z,22.27
2016-07-08T08:44:22.223Z,22.38
2016-07-08T08:45:22.086Z,22.46
2016-07-08T08:46:22.105Z,22.55
2016-07-08T08:47:22.254Z,22.42
2016-07-08T08:48:22.335Z,22.44
2016-07-08T08:49:22.383Z,22.26
2016-07-08T08:50:22.239Z,22.23
2016-07-08T08:51:22.232Z,22.26
2016-07-08T08:52:22.394Z,22.22
2016-07-08T08:53:28.387Z,22.16
2016-07-08T08:54:22.100Z,22.2
2016-07-08T08:55:22.116Z,22.14
2016-07-08T08:57:22.222Z,22.16
2016-07-08T08:58:22.125Z,22.18
2016-07-08T08:59:22.115Z,22.26
2016-07-08T09:00:22.913Z,22.16
2016-07-08T09:01:22.122Z,22.15
2016-07-08T09:02:22.254Z,22.07
2016-07-08T09:03:22.127Z,21.9
2016-07-08T09:04:22.214Z,21.83
2016-07-08T09:05:22.288Z,21.89
2016-07-08T09:06:24.643Z,21.85
2016-07-08T09:07:22.302Z,21.82
2016-07-08T09:08:22.427Z,21.82
2016-07-08T09:09:22.337Z,21.85
2016-07-08T09:10:22.435Z,21.94
2016-07-08T09:11:23.013Z,22.02
2016-07-08T09:12:22.151Z,21.9
2016-07-08T09:13:22.903Z,22
2016-07-08T09:14:22.149Z,21.9
2016-07-08T09:15:22.157Z,22
2016-07-08T09:16:23.019Z,22.05
2016-07-08T09:17:22.333Z,22.2
2016-07-08T09:18:22.582Z,22.33
2016-07-08T09:19:22.179Z,22.39
2016-07-08T09:20:22.358Z,22.33
2016-07-08T09:21:22.218Z,22.34
2016-07-08T09:22:22.347Z,22.42
2016-07-08T09:23:22.590Z,22.41
2016-07-08T09:24:22.351Z,22.3
2016-07-08T09:25:22.529Z,22.29
2016-07-08T09:26:22.563Z,22.33
2016-07-08T09:27:22.204Z,22.42
2016-07-08T09:28:22.544Z,22.48
2016-07-08T09:29:22.367Z,22.42
2016-07-08T09:30:22.398Z,22.49
2016-07-08T09:31:23.258Z,22.54
2016-07-08T09:32:23.732Z,22.57
2016-07-08T09:33:22.555Z,22.49
2016-07-08T09:34:24.098Z,22.55
2016-07-08T09:35:23.344Z,22.66
2016-07-08T09:36:22.415Z,22.82
2016-07-08T09:37:23.257Z,22.84
2016-07-08T09:38:22.525Z,22.89
2016-07-08T09:39:22.280Z,22.81
2016-07-08T09:40:22.524Z,22.89
2016-07-08T09:41:22.559Z,22.92
2016-07-08T09:42:22.342Z,22.79
2016-07-08T09:43:22.429Z,22.71
2016-07-08T09:44:22.451Z,22.7
2016-07-08T09:45:22.491Z,22.89
2016-07-08T09:46:22.627Z,22.91
2016-07-08T09:47:22.441Z,23.1
2016-07-08T09:48:22.572Z,23.04
2016-07-08T09:49:22.544Z,23.03
2016-07-08T09:50:22.770Z,23.15
2016-07-08T09:51:22.430Z,22.88
2016-07-08T09:52:22.459Z,23.01
2016-07-08T09:53:22.692Z,23
2016-07-08T09:54:22.444Z,23.01
2016-07-08T09:55:22.333Z,22.89
2016-07-08T09:56:23.010Z,22.84
2016-07-08T09:57:22.607Z,22.85
2016-07-08T09:58:22.336Z,22.88
2016-07-08T09:59:22.611Z,22.78
2016-07-08T10:00:23.729Z,22.71
2016-07-08T10:01:22.613Z,22.82
2016-07-08T10:02:22.483Z,22.82
2016-07-08T10:03:22.404Z,22.79
2016-07-08T10:04:22.739Z,22.81
2016-07-08T10:05:22.665Z,22.67
2016-07-08T10:06:22.465Z,22.61
2016-07-08T10:19:22.991Z,22.66
2016-07-08T10:19:30.088Z,22.69
2016-07-08T10:20:29.946Z,22.55
2016-07-08T10:21:29.995Z,22.66
2016-07-08T10:22:30.098Z,22.63
2016-07-08T10:23:29.908Z,22.59
2016-07-08T10:24:30.108Z,22.46
2016-07-08T10:25:30.169Z,22.42
2016-07-08T10:26:29.875Z,22.42
2016-07-08T10:27:30.112Z,22.34
2016-07-08T10:28:30.130Z,22.36
2016-07-08T10:29:30.064Z,22.41
2016-07-08T10:30:30.146Z,22.38
2016-07-08T10:31:30.445Z,22.41
2016-07-08T10:32:29.881Z,22.44
2016-07-08T10:33:30.035Z,22.3
2016-07-08T10:34:30.021Z,22.38
2016-07-08T10:35:29.999Z,22.36
2016-07-08T10:36:29.999Z,22.41
2016-07-08T10:37:30.005Z,22.48
2016-07-08T10:38:30.028Z,22.46
2016-07-08T10:39:30.089Z,22.51
2016-07-08T10:40:30.053Z,22.69
2016-07-08T10:41:30.133Z,22.61
2016-07-08T10:42:30.049Z,22.52
2016-07-08T10:43:30.063Z,22.52
2016-07-08T10:44:29.958Z,22.45
2016-07-08T10:45:30.027Z,22.39
2016-07-08T10:46:30.304Z,22.36
2016-07-08T10:47:29.899Z,22.46
2016-07-08T10:48:30.723Z,22.46
2016-07-08T10:49:30.178Z,22.27
2016-07-08T10:50:30.088Z,22.16
2016-07-08T10:51:30.051Z,22.16
2016-07-08T10:52:30.122Z,22.45
2016-07-08T10:53:30.106Z,22.38
2016-07-08T10:54:30.735Z,22.38
2016-07-08T10:55:30.198Z,22.39
2016-07-08T10:56:29.940Z,22.41
2016-07-08T10:57:30.203Z,22.23
2016-07-08T10:58:30.090Z,22.16
2016-07-08T10:59:30.162Z,22.23
2016-07-08T11:00:30.201Z,22.29
2016-07-08T11:01:30.194Z,22.24
2016-07-08T11:02:30.206Z,22.23
2016-07-08T11:03:30.269Z,22.36
2016-07-08T11:04:30.110Z,22.24
2016-07-08T11:05:30.220Z,22.36
2016-07-08T11:06:30.133Z,22.34
2016-07-08T11:07:30.175Z,22.3
2016-07-08T11:08:30.264Z,22.18
2016-07-08T11:09:30.123Z,22.07
2016-07-08T11:10:30.264Z,22.08
2016-07-08T11:11:30.008Z,22.2
2016-07-08T11:12:30.292Z,22.15
2016-07-08T11:13:30.332Z,22.18
2016-07-08T11:14:30.392Z,22.05
2016-07-08T11:15:30.148Z,22.14
2016-07-08T11:16:30.528Z,22.22
2016-07-08T11:17:33.456Z,22.16
2016-07-08T11:18:30.132Z,22.05
2016-07-08T11:19:30.135Z,22.11
2016-07-08T11:20:30.223Z,22.05
2016-07-08T11:21:30.151Z,22.12
2016-07-08T11:22:30.164Z,22.04
2016-07-08T11:23:30.175Z,22.16
2016-07-08T11:24:30.140Z,22.16
2016-07-08T11:25:30.256Z,22.24
2016-07-08T11:26:30.196Z,22.24
2016-07-08T11:27:30.201Z,22.22
2016-07-08T11:28:30.209Z,22.12
2016-07-08T11:29:30.308Z,22.04
2016-07-08T11:30:30.187Z,22.08
2016-07-08T11:31:30.203Z,22.04
2016-07-08T11:32:30.206Z,22.07
2016-07-08T11:33:30.236Z,22.07
2016-07-08T11:34:30.096Z,22
2016-07-08T11:35:30.186Z,22
2016-07-08T11:36:30.189Z,22.09
2016-07-08T11:37:30.244Z,22
2016-07-08T11:38:30.270Z,22.12
2016-07-08T11:39:30.331Z,22.11
2016-07-08T11:40:30.244Z,22.07
2016-07-08T11:41:30.130Z,21.96
2016-07-08T11:42:30.114Z,21.96
2016-07-08T11:43:30.230Z,22.02
2016-07-08T11:44:30.248Z,21.99
2016-07-08T11:45:30.377Z,22.08
2016-07-08T11:46:30.299Z,21.96
2016-07-08T11:47:30.147Z,21.92
2016-07-08T11:48:30.275Z,22.05
2016-07-08T11:49:30.394Z,21.94
2016-07-08T11:50:30.395Z,21.9
2016-07-08T11:51:30.521Z,21.96
2016-07-08T11:52:30.396Z,21.94
2016-07-08T11:53:30.343Z,22
2016-07-08T11:54:30.160Z,22.05
2016-07-08T11:55:30.250Z,22.15
2016-07-08T11:56:30.397Z,22.26
2016-07-08T11:57:30.272Z,22.18
2016-07-08T11:58:30.426Z,22.36
2016-07-08T11:59:30.436Z,22.24
2016-07-08T12:00:30.248Z,22.31
2016-07-08T12:01:30.398Z,22.26
2016-07-08T12:02:30.420Z,22.2
2016-07-08T12:03:30.278Z,22.18
2016-07-08T12:04:30.339Z,22.26
2016-07-08T12:05:30.283Z,22.27
2016-07-08T12:06:30.496Z,22.33
2016-07-08T12:07:30.265Z,22.33
2016-07-08T12:08:30.310Z,22.41
2016-07-08T12:09:30.464Z,22.31
2016-07-08T12:10:30.470Z,22.3
2016-07-08T12:11:30.431Z,22.31
2016-07-08T12:12:30.406Z,22.34
2016-07-08T12:13:30.463Z,22.42
2016-07-08T12:14:30.433Z,22.41
2016-07-08T12:15:30.140Z,22.41
2016-07-08T12:16:30.454Z,22.48
2016-07-08T12:17:30.377Z,22.89
2016-07-08T12:18:30.213Z,22.91
2016-07-08T12:19:30.311Z,22.88
2016-07-08T12:20:30.332Z,23.14
2016-07-08T12:21:30.478Z,23.18
2016-07-08T12:22:30.227Z,23.42
2016-07-08T12:23:30.499Z,23.45
2016-07-08T12:24:30.457Z,23.75
2016-07-08T12:25:30.321Z,23.99
2016-07-08T12:26:30.377Z,24.15
2016-07-08T12:27:30.532Z,24.26
2016-07-08T12:28:30.342Z,24.44
2016-07-08T12:29:30.370Z,24.4
2016-07-08T12:30:30.451Z,24.64
2016-07-08T12:31:30.313Z,24.32
2016-07-08T12:32:30.385Z,24.14
2016-07-08T12:33:30.265Z,24
2016-07-08T12:34:30.400Z,23.79
2016-07-08T12:35:30.522Z,23.57
2016-07-08T12:36:30.249Z,23.21
2016-07-08T12:37:30.494Z,23.01
2016-07-08T12:38:30.295Z,22.86
2016-07-08T12:39:30.514Z,23.04
2016-07-08T12:40:30.254Z,23.06
2016-07-08T12:41:30.396Z,23.03
2016-07-08T12:42:30.361Z,23.14
2016-07-08T12:43:30.424Z,23.04
2016-07-08T12:44:30.372Z,22.89
2016-07-08T12:45:30.417Z,22.7
2016-07-08T12:46:30.380Z,22.89
2016-07-08T12:47:30.560Z,22.92
2016-07-08T12:48:30.423Z,22.82
2016-07-08T12:49:30.382Z,22.73
2016-07-08T12:50:30.256Z,22.48
2016-07-08T12:51:30.638Z,22.48
2016-07-08T12:52:30.462Z,22.69
2016-07-08T12:53:30.338Z,22.81
2016-07-08T12:54:30.542Z,22.66
2016-07-08T12:55:30.283Z,22.75
2016-07-08T12:56:30.539Z,22.71
2016-07-08T12:57:30.433Z,22.78
2016-07-08T12:58:30.420Z,22.84
2016-07-08T12:59:30.435Z,22.66
2016-07-08T13:00:30.414Z,22.64
2016-07-08T13:01:30.513Z,22.38
2016-07-08T13:02:30.434Z,22.42
2016-07-08T13:03:30.311Z,22.46
2016-07-08T13:04:30.320Z,22.42
2016-07-08T13:05:31.025Z,22.23
2016-07-08T13:06:30.467Z,22.22
2016-07-08T13:07:30.449Z,22.26
2016-07-08T13:08:30.461Z,22.33
2016-07-08T13:09:30.482Z,22.22
2016-07-08T13:10:30.607Z,22.18
2016-07-08T13:11:30.331Z,22.08
2016-07-08T13:12:30.615Z,22.18
2016-07-08T13:13:30.629Z,22.2
2016-07-08T13:14:30.500Z,22.18
2016-07-08T13:15:30.472Z,22.2
2016-07-08T13:16:30.542Z,22.22
2016-07-08T13:17:30.500Z,22.12
2016-07-08T13:18:30.344Z,22
2016-07-08T13:19:30.329Z,21.94
2016-07-08T13:20:30.478Z,21.83
2016-07-08T13:21:30.506Z,21.76
2016-07-08T13:22:30.500Z,21.9
2016-07-08T13:23:30.352Z,21.77
2016-07-08T13:24:30.511Z,21.74
2016-07-08T13:25:30.510Z,21.68
2016-07-08T13:26:30.537Z,21.77
2016-07-08T13:27:30.658Z,21.61
2016-07-08T13:28:31.307Z,21.53
2016-07-08T13:29:30.511Z,21.58